sensor_id;sensor_type;location;lat;lon;timestamp;pressure;altitude;pressure_sealevel;temperature;humidity
51067;BME280;37112;45.892;-123.962;2023-02-20T00:01:16;102670.39;;;8.64;94.26
51067;BME280;37112;45.892;-123.962;2023-02-20T00:03:30;102666.78;;;8.66;94.89
51067;BME280;37112;45.892;-123.962;2023-02-20T00:05:44;102656.96;;;8.69;95.24
51067;BME280;37112;45.892;-123.962;2023-02-20T00:07:57;102646.91;;;8.74;95.52
51067;BME280;37112;45.892;-123.962;2023-02-20T00:10:12;102644.39;;;8.81;97.27
51067;BME280;37112;45.892;-123.962;2023-02-20T00:12:25;102652.55;;;8.86;97.94
51067;BME280;37112;45.892;-123.962;2023-02-20T00:14:38;102652.54;;;8.87;97.45
51067;BME280;37112;45.892;-123.962;2023-02-20T00:16:52;102645.05;;;8.89;97.02
51067;BME280;37112;45.892;-123.962;2023-02-20T00:19:05;102646.01;;;8.92;97.31
51067;BME280;37112;45.892;-123.962;2023-02-20T00:21:19;102642.73;;;8.95;97.17
51067;BME280;37112;45.892;-123.962;2023-02-20T00:23:35;102639.77;;;8.99;97.16
51067;BME280;37112;45.892;-123.962;2023-02-20T00:25:50;102640.90;;;9.03;97.29
51067;BME280;37112;45.892;-123.962;2023-02-20T00:28:04;102634.10;;;9.05;97.53
51067;BME280;37112;45.892;-123.962;2023-02-20T00:30:20;102630.31;;;9.07;97.37
51067;BME280;37112;45.892;-123.962;2023-02-20T00:32:35;102629.20;;;9.09;97.29
51067;BME280;37112;45.892;-123.962;2023-02-20T00:34:48;102623.65;;;9.10;97.30
51067;BME280;37112;45.892;-123.962;2023-02-20T00:37:02;102618.13;;;9.12;97.29
51067;BME280;37112;45.892;-123.962;2023-02-20T00:39:16;102610.08;;;9.14;97.40
51067;BME280;37112;45.892;-123.962;2023-02-20T00:41:29;102605.34;;;9.13;97.22
51067;BME280;37112;45.892;-123.962;2023-02-20T00:43:42;102605.64;;;9.14;97.44
51067;BME280;37112;45.892;-123.962;2023-02-20T00:45:57;102610.24;;;9.14;97.33
51067;BME280;37112;45.892;-123.962;2023-02-20T00:48:10;102607.47;;;9.12;97.53
51067;BME280;37112;45.892;-123.962;2023-02-20T00:50:23;102603.55;;;9.07;96.96
51067;BME280;37112;45.892;-123.962;2023-02-20T00:52:40;102605.65;;;9.03;96.80
51067;BME280;37112;45.892;-123.962;2023-02-20T00:54:54;102599.66;;;9.01;96.81
51067;BME280;37112;45.892;-123.962;2023-02-20T00:57:07;102598.57;;;9.02;97.01
51067;BME280;37112;45.892;-123.962;2023-02-20T00:59:20;102596.90;;;9.05;97.22
51067;BME280;37112;45.892;-123.962;2023-02-20T01:01:34;102595.06;;;9.07;97.43
51067;BME280;37112;45.892;-123.962;2023-02-20T01:03:47;102600.54;;;9.07;97.26
51067;BME280;37112;45.892;-123.962;2023-02-20T01:06:02;102585.25;;;9.08;97.30
51067;BME280;37112;45.892;-123.962;2023-02-20T01:08:15;102570.38;;;9.08;97.22
51067;BME280;37112;45.892;-123.962;2023-02-20T01:10:29;102562.38;;;9.09;97.30
51067;BME280;37112;45.892;-123.962;2023-02-20T01:12:43;102570.91;;;9.08;97.29
51067;BME280;37112;45.892;-123.962;2023-02-20T01:14:56;102571.60;;;9.08;97.34
51067;BME280;37112;45.892;-123.962;2023-02-20T01:17:11;102565.23;;;9.08;97.28
51067;BME280;37112;45.892;-123.962;2023-02-20T01:19:25;102572.17;;;9.07;97.16
51067;BME280;37112;45.892;-123.962;2023-02-20T01:21:38;102564.41;;;9.06;97.17
51067;BME280;37112;45.892;-123.962;2023-02-20T01:23:52;102561.08;;;9.06;97.04
51067;BME280;37112;45.892;-123.962;2023-02-20T01:26:06;102554.36;;;9.05;96.85
51067;BME280;37112;45.892;-123.962;2023-02-20T01:28:20;102552.25;;;9.05;96.91
51067;BME280;37112;45.892;-123.962;2023-02-20T01:30:34;102570.41;;;9.02;96.77
51067;BME280;37112;45.892;-123.962;2023-02-20T01:32:47;102591.23;;;8.99;96.67
51067;BME280;37112;45.892;-123.962;2023-02-20T01:35:01;102599.11;;;8.96;96.54
51067;BME280;37112;45.892;-123.962;2023-02-20T01:37:16;102589.63;;;8.93;96.61
51067;BME280;37112;45.892;-123.962;2023-02-20T01:39:30;102596.81;;;8.91;96.71
51067;BME280;37112;45.892;-123.962;2023-02-20T01:41:44;102598.09;;;8.89;96.82
51067;BME280;37112;45.892;-123.962;2023-02-20T01:43:58;102601.30;;;8.89;96.95
51067;BME280;37112;45.892;-123.962;2023-02-20T01:46:45;102605.54;;;8.89;96.93
51067;BME280;37112;45.892;-123.962;2023-02-20T01:49:06;102612.11;;;8.88;97.13
51067;BME280;37112;45.892;-123.962;2023-02-20T01:51:23;102619.41;;;8.87;97.09
51067;BME280;37112;45.892;-123.962;2023-02-20T01:53:36;102627.01;;;8.88;97.21
51067;BME280;37112;45.892;-123.962;2023-02-20T01:55:52;102636.94;;;8.87;97.04
51067;BME280;37112;45.892;-123.962;2023-02-20T01:58:11;102639.98;;;8.86;97.12
51067;BME280;37112;45.892;-123.962;2023-02-20T02:00:28;102633.41;;;8.86;97.21
51067;BME280;37112;45.892;-123.962;2023-02-20T02:02:44;102616.44;;;8.85;97.12
51067;BME280;37112;45.892;-123.962;2023-02-20T02:05:00;102602.27;;;8.85;97.13
51067;BME280;37112;45.892;-123.962;2023-02-20T02:07:15;102612.02;;;8.85;97.18
51067;BME280;37112;45.892;-123.962;2023-02-20T02:09:37;102622.83;;;8.85;97.23
51067;BME280;37112;45.892;-123.962;2023-02-20T02:11:52;102603.88;;;8.85;97.34
51067;BME280;37112;45.892;-123.962;2023-02-20T02:14:07;102610.96;;;8.85;97.13
51067;BME280;37112;45.892;-123.962;2023-02-20T02:16:27;102608.88;;;8.84;97.14
51067;BME280;37112;45.892;-123.962;2023-02-20T02:18:45;102612.69;;;8.81;96.89
51067;BME280;37112;45.892;-123.962;2023-02-20T02:21:26;102616.97;;;8.79;96.94
51067;BME280;37112;45.892;-123.962;2023-02-20T02:29:22;102639.75;;;8.76;97.06
51067;BME280;37112;45.892;-123.962;2023-02-20T02:32:08;102622.75;;;8.76;97.12
51067;BME280;37112;45.892;-123.962;2023-02-20T02:34:52;102619.39;;;8.76;97.10
51067;BME280;37112;45.892;-123.962;2023-02-20T02:37:17;102625.78;;;8.76;97.13
51067;BME280;37112;45.892;-123.962;2023-02-20T02:39:39;102645.63;;;8.75;97.25
51067;BME280;37112;45.892;-123.962;2023-02-20T02:41:59;102657.86;;;8.75;97.11
51067;BME280;37112;45.892;-123.962;2023-02-20T02:44:20;102660.70;;;8.75;97.04
51067;BME280;37112;45.892;-123.962;2023-02-20T02:46:41;102665.85;;;8.74;97.08
51067;BME280;37112;45.892;-123.962;2023-02-20T02:49:01;102672.45;;;8.73;97.15
51067;BME280;37112;45.892;-123.962;2023-02-20T02:51:19;102674.23;;;8.73;97.14
51067;BME280;37112;45.892;-123.962;2023-02-20T02:53:34;102677.27;;;8.71;97.13
51067;BME280;37112;45.892;-123.962;2023-02-20T02:55:47;102679.45;;;8.69;97.11
51067;BME280;37112;45.892;-123.962;2023-02-20T02:58:01;102678.95;;;8.68;96.98
51067;BME280;37112;45.892;-123.962;2023-02-20T03:00:21;102678.43;;;8.68;97.23
51067;BME280;37112;45.892;-123.962;2023-02-20T03:02:40;102681.45;;;8.67;97.19
51067;BME280;37112;45.892;-123.962;2023-02-20T03:04:57;102686.77;;;8.67;97.30
51067;BME280;37112;45.892;-123.962;2023-02-20T03:07:13;102685.36;;;8.67;97.20
51067;BME280;37112;45.892;-123.962;2023-02-20T03:09:31;102687.66;;;8.67;97.33
51067;BME280;37112;45.892;-123.962;2023-02-20T03:11:46;102683.45;;;8.65;97.00
51067;BME280;37112;45.892;-123.962;2023-02-20T03:14:06;102678.68;;;8.65;97.11
51067;BME280;37112;45.892;-123.962;2023-02-20T03:16:43;102681.72;;;8.64;97.12
51067;BME280;37112;45.892;-123.962;2023-02-20T03:19:00;102682.83;;;8.62;97.13
51067;BME280;37112;45.892;-123.962;2023-02-20T03:21:17;102686.94;;;8.55;96.39
51067;BME280;37112;45.892;-123.962;2023-02-20T03:23:34;102685.53;;;8.48;96.10
51067;BME280;37112;45.892;-123.962;2023-02-20T03:25:52;102687.09;;;8.43;95.96
51067;BME280;37112;45.892;-123.962;2023-02-20T03:28:08;102687.70;;;8.41;96.28
51067;BME280;37112;45.892;-123.962;2023-02-20T03:30:26;102689.98;;;8.41;96.51
51067;BME280;37112;45.892;-123.962;2023-02-20T03:32:41;102693.86;;;8.42;96.71
51067;BME280;37112;45.892;-123.962;2023-02-20T03:35:15;102700.61;;;8.41;96.55
51067;BME280;37112;45.892;-123.962;2023-02-20T03:37:47;102704.19;;;8.38;96.52
51067;BME280;37112;45.892;-123.962;2023-02-20T03:40:19;102705.25;;;8.38;96.60
51067;BME280;37112;45.892;-123.962;2023-02-20T03:42:55;102688.94;;;8.40;96.60
51067;BME280;37112;45.892;-123.962;2023-02-20T03:45:30;102679.55;;;8.41;96.68
51067;BME280;37112;45.892;-123.962;2023-02-20T03:47:46;102675.80;;;8.42;96.73
51067;BME280;37112;45.892;-123.962;2023-02-20T03:50:03;102671.86;;;8.43;97.06
51067;BME280;37112;45.892;-123.962;2023-02-20T03:52:19;102678.19;;;8.44;97.18
51067;BME280;37112;45.892;-123.962;2023-02-20T03:54:34;102673.64;;;8.43;96.74
51067;BME280;37112;45.892;-123.962;2023-02-20T03:56:51;102664.65;;;8.41;96.60
51067;BME280;37112;45.892;-123.962;2023-02-20T03:59:10;102665.16;;;8.42;96.40
51067;BME280;37112;45.892;-123.962;2023-02-20T04:01:27;102669.06;;;8.42;96.35
51067;BME280;37112;45.892;-123.962;2023-02-20T04:03:42;102673.84;;;8.42;96.29
51067;BME280;37112;45.892;-123.962;2023-02-20T04:05:59;102677.77;;;8.40;96.24
51067;BME280;37112;45.892;-123.962;2023-02-20T04:08:19;102680.61;;;8.41;96.25
51067;BME280;37112;45.892;-123.962;2023-02-20T04:10:42;102672.45;;;8.41;96.28
51067;BME280;37112;45.892;-123.962;2023-02-20T04:13:05;102673.52;;;8.41;96.37
51067;BME280;37112;45.892;-123.962;2023-02-20T04:15:27;102678.45;;;8.42;96.43
51067;BME280;37112;45.892;-123.962;2023-02-20T04:17:43;102679.48;;;8.43;96.60
51067;BME280;37112;45.892;-123.962;2023-02-20T04:19:58;102684.06;;;8.44;96.56
51067;BME280;37112;45.892;-123.962;2023-02-20T04:22:16;102686.70;;;8.44;96.68
51067;BME280;37112;45.892;-123.962;2023-02-20T04:24:35;102688.59;;;8.46;96.90
51067;BME280;37112;45.892;-123.962;2023-02-20T04:26:51;102690.31;;;8.49;96.86
51067;BME280;37112;45.892;-123.962;2023-02-20T04:29:06;102680.87;;;8.50;96.94
51067;BME280;37112;45.892;-123.962;2023-02-20T04:31:20;102688.06;;;8.52;96.88
51067;BME280;37112;45.892;-123.962;2023-02-20T04:33:34;102688.39;;;8.53;96.88
51067;BME280;37112;45.892;-123.962;2023-02-20T04:35:53;102700.58;;;8.54;97.06
51067;BME280;37112;45.892;-123.962;2023-02-20T04:38:09;102699.24;;;8.51;96.84
51067;BME280;37112;45.892;-123.962;2023-02-20T04:40:27;102704.98;;;8.49;96.99
51067;BME280;37112;45.892;-123.962;2023-02-20T04:42:40;102702.05;;;8.45;97.73
51067;BME280;37112;45.892;-123.962;2023-02-20T04:44:53;102701.86;;;8.40;98.01
51067;BME280;37112;45.892;-123.962;2023-02-20T04:47:11;102697.08;;;8.32;98.13
51067;BME280;37112;45.892;-123.962;2023-02-20T04:49:26;102689.80;;;8.26;97.61
51067;BME280;37112;45.892;-123.962;2023-02-20T04:51:40;102693.45;;;8.22;97.51
51067;BME280;37112;45.892;-123.962;2023-02-20T04:53:53;102688.58;;;8.19;97.38
51067;BME280;37112;45.892;-123.962;2023-02-20T04:56:07;102688.80;;;8.17;97.55
51067;BME280;37112;45.892;-123.962;2023-02-20T04:58:22;102685.85;;;8.15;97.37
51067;BME280;37112;45.892;-123.962;2023-02-20T05:00:58;102675.45;;;8.14;97.45
51067;BME280;37112;45.892;-123.962;2023-02-20T05:03:12;102662.01;;;8.13;97.56
51067;BME280;37112;45.892;-123.962;2023-02-20T05:05:27;102665.73;;;8.13;97.62
51067;BME280;37112;45.892;-123.962;2023-02-20T05:07:41;102678.64;;;8.13;97.65
51067;BME280;37112;45.892;-123.962;2023-02-20T05:09:55;102693.30;;;8.14;97.80
51067;BME280;37112;45.892;-123.962;2023-02-20T05:12:08;102707.77;;;8.16;98.12
51067;BME280;37112;45.892;-123.962;2023-02-20T05:14:22;102716.95;;;8.17;98.09
51067;BME280;37112;45.892;-123.962;2023-02-20T05:16:35;102730.52;;;8.19;98.25
51067;BME280;37112;45.892;-123.962;2023-02-20T05:18:49;102723.96;;;8.20;98.15
51067;BME280;37112;45.892;-123.962;2023-02-20T05:21:03;102725.88;;;8.20;98.08
51067;BME280;37112;45.892;-123.962;2023-02-20T05:23:33;102729.04;;;8.22;98.27
51067;BME280;37112;45.892;-123.962;2023-02-20T05:25:46;102723.36;;;8.22;98.30
51067;BME280;37112;45.892;-123.962;2023-02-20T05:27:59;102723.89;;;8.22;98.79
51067;BME280;37112;45.892;-123.962;2023-02-20T05:30:16;102729.17;;;8.22;98.50
51067;BME280;37112;45.892;-123.962;2023-02-20T05:32:30;102725.31;;;8.22;98.32
51067;BME280;37112;45.892;-123.962;2023-02-20T05:34:43;102727.80;;;8.21;98.30
51067;BME280;37112;45.892;-123.962;2023-02-20T05:37:00;102730.44;;;8.22;98.45
51067;BME280;37112;45.892;-123.962;2023-02-20T05:39:16;102725.64;;;8.23;98.64
51067;BME280;37112;45.892;-123.962;2023-02-20T05:41:33;102717.98;;;8.24;98.56
51067;BME280;37112;45.892;-123.962;2023-02-20T05:43:49;102723.13;;;8.24;98.58
51067;BME280;37112;45.892;-123.962;2023-02-20T05:46:07;102725.42;;;8.24;98.48
51067;BME280;37112;45.892;-123.962;2023-02-20T05:48:25;102712.83;;;8.26;98.53
51067;BME280;37112;45.892;-123.962;2023-02-20T05:50:43;102696.67;;;8.27;98.73
51067;BME280;37112;45.892;-123.962;2023-02-20T05:53:02;102684.08;;;8.29;98.61
51067;BME280;37112;45.892;-123.962;2023-02-20T05:55:19;102675.34;;;8.30;98.65
51067;BME280;37112;45.892;-123.962;2023-02-20T05:57:37;102675.52;;;8.31;98.58
51067;BME280;37112;45.892;-123.962;2023-02-20T05:59:50;102687.34;;;8.31;98.66
51067;BME280;37112;45.892;-123.962;2023-02-20T06:02:06;102692.11;;;8.32;98.68
51067;BME280;37112;45.892;-123.962;2023-02-20T06:04:24;102698.30;;;8.32;98.70
51067;BME280;37112;45.892;-123.962;2023-02-20T06:06:41;102706.44;;;8.33;98.72
51067;BME280;37112;45.892;-123.962;2023-02-20T06:08:59;102704.29;;;8.34;98.90
51067;BME280;37112;45.892;-123.962;2023-02-20T06:11:16;102711.02;;;8.35;98.92
51067;BME280;37112;45.892;-123.962;2023-02-20T06:13:31;102713.13;;;8.36;98.88
51067;BME280;37112;45.892;-123.962;2023-02-20T06:15:48;102704.77;;;8.37;98.86
51067;BME280;37112;45.892;-123.962;2023-02-20T06:18:04;102691.27;;;8.38;98.92
51067;BME280;37112;45.892;-123.962;2023-02-20T06:20:21;102688.76;;;8.40;99.08
51067;BME280;37112;45.892;-123.962;2023-02-20T06:22:37;102686.27;;;8.41;98.97
51067;BME280;37112;45.892;-123.962;2023-02-20T06:24:59;102687.34;;;8.40;98.81
51067;BME280;37112;45.892;-123.962;2023-02-20T06:27:16;102689.80;;;8.41;98.93
51067;BME280;37112;45.892;-123.962;2023-02-20T06:29:33;102687.31;;;8.41;98.92
51067;BME280;37112;45.892;-123.962;2023-02-20T06:31:47;102688.21;;;8.41;99.17
51067;BME280;37112;45.892;-123.962;2023-02-20T06:34:02;102686.98;;;8.40;99.26
51067;BME280;37112;45.892;-123.962;2023-02-20T06:36:23;102675.73;;;8.37;99.08
51067;BME280;37112;45.892;-123.962;2023-02-20T06:38:37;102665.17;;;8.34;98.88
51067;BME280;37112;45.892;-123.962;2023-02-20T06:40:51;102667.14;;;8.32;98.97
51067;BME280;37112;45.892;-123.962;2023-02-20T06:43:04;102669.98;;;8.32;99.14
51067;BME280;37112;45.892;-123.962;2023-02-20T06:45:22;102668.20;;;8.33;99.21
51067;BME280;37112;45.892;-123.962;2023-02-20T07:00:04;102651.57;;;8.27;99.37
51067;BME280;37112;45.892;-123.962;2023-02-20T07:02:33;102642.40;;;8.25;99.17
51067;BME280;37112;45.892;-123.962;2023-02-20T07:04:51;102639.05;;;8.24;99.14
51067;BME280;37112;45.892;-123.962;2023-02-20T07:07:04;102636.95;;;8.23;99.31
51067;BME280;37112;45.892;-123.962;2023-02-20T07:09:18;102638.38;;;8.23;99.54
51067;BME280;37112;45.892;-123.962;2023-02-20T07:11:32;102650.27;;;8.22;99.44
51067;BME280;37112;45.892;-123.962;2023-02-20T07:13:48;102670.81;;;8.21;99.56
51067;BME280;37112;45.892;-123.962;2023-02-20T07:16:01;102671.39;;;8.20;99.65
51067;BME280;37112;45.892;-123.962;2023-02-20T07:18:15;102664.16;;;8.19;99.55
51067;BME280;37112;45.892;-123.962;2023-02-20T07:20:31;102663.30;;;8.18;99.56
51067;BME280;37112;45.892;-123.962;2023-02-20T07:22:51;102673.06;;;8.17;99.66
51067;BME280;37112;45.892;-123.962;2023-02-20T07:25:06;102691.81;;;8.18;99.62
51067;BME280;37112;45.892;-123.962;2023-02-20T07:27:19;102700.30;;;8.18;99.92
51067;BME280;37112;45.892;-123.962;2023-02-20T07:29:33;102695.31;;;8.18;99.87
51067;BME280;37112;45.892;-123.962;2023-02-20T07:31:53;102702.71;;;8.20;99.99
51067;BME280;37112;45.892;-123.962;2023-02-20T07:34:06;102710.45;;;8.22;100.00
51067;BME280;37112;45.892;-123.962;2023-02-20T07:36:23;102708.47;;;8.23;99.98
51067;BME280;37112;45.892;-123.962;2023-02-20T07:38:45;102705.60;;;8.24;100.00
51067;BME280;37112;45.892;-123.962;2023-02-20T07:41:07;102706.65;;;8.24;100.00
51067;BME280;37112;45.892;-123.962;2023-02-20T07:43:20;102702.92;;;8.25;100.00
51067;BME280;37112;45.892;-123.962;2023-02-20T07:45:38;102697.45;;;8.25;100.00
51067;BME280;37112;45.892;-123.962;2023-02-20T07:47:54;102691.23;;;8.25;100.00
51067;BME280;37112;45.892;-123.962;2023-02-20T07:50:09;102686.47;;;8.25;100.00
51067;BME280;37112;45.892;-123.962;2023-02-20T07:52:22;102679.92;;;8.24;100.00
51067;BME280;37112;45.892;-123.962;2023-02-20T07:54:36;102667.88;;;8.25;100.00
51067;BME280;37112;45.892;-123.962;2023-02-20T07:56:52;102663.28;;;8.26;100.00
51067;BME280;37112;45.892;-123.962;2023-02-20T07:59:05;102655.84;;;8.25;100.00
51067;BME280;37112;45.892;-123.962;2023-02-20T08:01:19;102646.64;;;8.26;100.00
51067;BME280;37112;45.892;-123.962;2023-02-20T08:03:32;102641.13;;;8.27;100.00
51067;BME280;37112;45.892;-123.962;2023-02-20T08:05:46;102625.73;;;8.27;100.00
51067;BME280;37112;45.892;-123.962;2023-02-20T08:08:00;102619.36;;;8.27;99.99
51067;BME280;37112;45.892;-123.962;2023-02-20T08:12:27;102605.89;;;8.27;100.00
51067;BME280;37112;45.892;-123.962;2023-02-20T08:14:40;102605.02;;;8.27;100.00
51067;BME280;37112;45.892;-123.962;2023-02-20T08:16:53;102605.55;;;8.27;100.00
51067;BME280;37112;45.892;-123.962;2023-02-20T08:19:08;102612.28;;;8.26;100.00
51067;BME280;37112;45.892;-123.962;2023-02-20T08:21:23;102615.64;;;8.27;100.00
51067;BME280;37112;45.892;-123.962;2023-02-20T08:23:36;102621.66;;;8.26;100.00
51067;BME280;37112;45.892;-123.962;2023-02-20T08:25:50;102636.00;;;8.26;100.00
51067;BME280;37112;45.892;-123.962;2023-02-20T08:28:04;102646.60;;;8.27;100.00
51067;BME280;37112;45.892;-123.962;2023-02-20T08:30:19;102645.17;;;8.28;100.00
51067;BME280;37112;45.892;-123.962;2023-02-20T08:32:33;102645.88;;;8.28;100.00
51067;BME280;37112;45.892;-123.962;2023-02-20T08:34:47;102645.17;;;8.27;100.00
51067;BME280;37112;45.892;-123.962;2023-02-20T08:37:02;102655.13;;;8.25;100.00
51067;BME280;37112;45.892;-123.962;2023-02-20T08:39:15;102654.96;;;8.25;100.00
51067;BME280;37112;45.892;-123.962;2023-02-20T08:41:28;102649.30;;;8.25;100.00
51067;BME280;37112;45.892;-123.962;2023-02-20T08:43:43;102642.05;;;8.25;100.00
51067;BME280;37112;45.892;-123.962;2023-02-20T08:45:56;102638.68;;;8.25;100.00
51067;BME280;37112;45.892;-123.962;2023-02-20T08:48:12;102636.02;;;8.25;100.00
51067;BME280;37112;45.892;-123.962;2023-02-20T08:50:26;102647.55;;;8.24;100.00
51067;BME280;37112;45.892;-123.962;2023-02-20T08:52:39;102654.97;;;8.24;100.00
51067;BME280;37112;45.892;-123.962;2023-02-20T08:54:54;102656.02;;;8.25;100.00
51067;BME280;37112;45.892;-123.962;2023-02-20T08:57:07;102654.08;;;8.25;100.00
51067;BME280;37112;45.892;-123.962;2023-02-20T08:59:23;102663.27;;;8.25;100.00
51067;BME280;37112;45.892;-123.962;2023-02-20T09:01:39;102665.92;;;8.25;100.00
51067;BME280;37112;45.892;-123.962;2023-02-20T09:03:52;102668.42;;;8.25;100.00
51067;BME280;37112;45.892;-123.962;2023-02-20T09:06:05;102675.31;;;8.25;100.00
51067;BME280;37112;45.892;-123.962;2023-02-20T09:08:21;102684.16;;;8.25;100.00
51067;BME280;37112;45.892;-123.962;2023-02-20T09:10:35;102686.29;;;8.25;100.00
51067;BME280;37112;45.892;-123.962;2023-02-20T09:12:48;102691.06;;;8.26;100.00
51067;BME280;37112;45.892;-123.962;2023-02-20T09:15:01;102693.38;;;8.25;100.00
51067;BME280;37112;45.892;-123.962;2023-02-20T09:17:15;102687.36;;;8.25;100.00
51067;BME280;37112;45.892;-123.962;2023-02-20T09:19:29;102698.66;;;8.26;100.00
51067;BME280;37112;45.892;-123.962;2023-02-20T09:21:43;102702.55;;;8.26;100.00
51067;BME280;37112;45.892;-123.962;2023-02-20T09:23:58;102694.22;;;8.27;100.00
51067;BME280;37112;45.892;-123.962;2023-02-20T09:26:11;102684.48;;;8.27;100.00
51067;BME280;37112;45.892;-123.962;2023-02-20T09:28:25;102680.56;;;8.28;100.00
51067;BME280;37112;45.892;-123.962;2023-02-20T09:30:38;102684.98;;;8.28;100.00
51067;BME280;37112;45.892;-123.962;2023-02-20T09:32:51;102687.11;;;8.28;100.00
51067;BME280;37112;45.892;-123.962;2023-02-20T09:35:05;102691.92;;;8.27;100.00
51067;BME280;37112;45.892;-123.962;2023-02-20T09:37:18;102700.09;;;8.25;100.00
51067;BME280;37112;45.892;-123.962;2023-02-20T09:39:32;102697.45;;;8.24;100.00
51067;BME280;37112;45.892;-123.962;2023-02-20T09:41:56;102689.69;;;8.23;100.00
51067;BME280;37112;45.892;-123.962;2023-02-20T09:44:17;102688.11;;;8.23;100.00
51067;BME280;37112;45.892;-123.962;2023-02-20T09:46:37;102694.11;;;8.24;100.00
51067;BME280;37112;45.892;-123.962;2023-02-20T09:49:01;102697.63;;;8.24;100.00
51067;BME280;37112;45.892;-123.962;2023-02-20T09:51:18;102694.59;;;8.25;100.00
51067;BME280;37112;45.892;-123.962;2023-02-20T09:53:35;102694.23;;;8.26;100.00
51067;BME280;37112;45.892;-123.962;2023-02-20T09:55:51;102694.23;;;8.26;100.00
51067;BME280;37112;45.892;-123.962;2023-02-20T09:58:05;102697.05;;;8.26;100.00
51067;BME280;37112;45.892;-123.962;2023-02-20T10:00:26;102691.42;;;8.24;100.00
51067;BME280;37112;45.892;-123.962;2023-02-20T10:02:43;102696.21;;;8.24;100.00
51067;BME280;37112;45.892;-123.962;2023-02-20T10:05:06;102704.89;;;8.24;100.00
51067;BME280;37112;45.892;-123.962;2023-02-20T10:07:26;102710.05;;;8.23;100.00
51067;BME280;37112;45.892;-123.962;2023-02-20T10:09:40;102713.77;;;8.23;100.00
51067;BME280;37112;45.892;-123.962;2023-02-20T10:12:02;102710.23;;;8.23;100.00
51067;BME280;37112;45.892;-123.962;2023-02-20T10:14:31;102708.82;;;8.23;100.00
51067;BME280;37112;45.892;-123.962;2023-02-20T10:16:53;102706.40;;;8.21;100.00
51067;BME280;37112;45.892;-123.962;2023-02-20T10:19:20;102702.92;;;8.19;100.00
51067;BME280;37112;45.892;-123.962;2023-02-20T10:21:46;102697.12;;;8.17;100.00
51067;BME280;37112;45.892;-123.962;2023-02-20T10:24:12;102693.75;;;8.17;100.00
51067;BME280;37112;45.892;-123.962;2023-02-20T10:26:34;102683.14;;;8.18;100.00
51067;BME280;37112;45.892;-123.962;2023-02-20T10:28:51;102676.58;;;8.18;100.00
51067;BME280;37112;45.892;-123.962;2023-02-20T10:31:08;102668.11;;;8.17;100.00
51067;BME280;37112;45.892;-123.962;2023-02-20T10:33:27;102666.87;;;8.16;100.00
51067;BME280;37112;45.892;-123.962;2023-02-20T10:35:48;102664.58;;;8.16;100.00
51067;BME280;37112;45.892;-123.962;2023-02-20T10:38:05;102663.52;;;8.16;100.00
51067;BME280;37112;45.892;-123.962;2023-02-20T10:40:23;102656.30;;;8.15;100.00
51067;BME280;37112;45.892;-123.962;2023-02-20T10:42:46;102659.52;;;8.13;100.00
51067;BME280;37112;45.892;-123.962;2023-02-20T10:45:11;102662.89;;;8.13;100.00
51067;BME280;37112;45.892;-123.962;2023-02-20T10:47:32;102662.88;;;8.14;100.00
51067;BME280;37112;45.892;-123.962;2023-02-20T10:49:55;102662.55;;;8.13;100.00
51067;BME280;37112;45.892;-123.962;2023-02-20T10:52:13;102679.00;;;8.13;100.00
51067;BME280;37112;45.892;-123.962;2023-02-20T10:54:44;102679.83;;;8.15;100.00
51067;BME280;37112;45.892;-123.962;2023-02-20T10:57:02;102675.58;;;8.15;100.00
51067;BME280;37112;45.892;-123.962;2023-02-20T10:59:22;102681.25;;;8.15;100.00
51067;BME280;37112;45.892;-123.962;2023-02-20T11:01:39;102693.60;;;8.16;100.00
51067;BME280;37112;45.892;-123.962;2023-02-20T11:03:56;102688.11;;;8.16;100.00
51067;BME280;37112;45.892;-123.962;2023-02-20T11:06:16;102679.13;;;8.15;100.00
51067;BME280;37112;45.892;-123.962;2023-02-20T11:08:30;102686.19;;;8.15;100.00
51067;BME280;37112;45.892;-123.962;2023-02-20T11:10:44;102689.69;;;8.16;100.00
51067;BME280;37112;45.892;-123.962;2023-02-20T11:12:58;102674.48;;;8.17;100.00
51067;BME280;37112;45.892;-123.962;2023-02-20T11:15:15;102664.91;;;8.17;100.00
51067;BME280;37112;45.892;-123.962;2023-02-20T11:17:29;102658.38;;;8.16;100.00
51067;BME280;37112;45.892;-123.962;2023-02-20T11:19:46;102663.53;;;8.16;100.00
51067;BME280;37112;45.892;-123.962;2023-02-20T11:22:03;102668.12;;;8.16;100.00
51067;BME280;37112;45.892;-123.962;2023-02-20T11:24:29;102666.70;;;8.16;100.00
51067;BME280;37112;45.892;-123.962;2023-02-20T11:26:43;102663.85;;;8.17;100.00
51067;BME280;37112;45.892;-123.962;2023-02-20T11:29:05;102670.58;;;8.17;100.00
51067;BME280;37112;45.892;-123.962;2023-02-20T11:31:25;102660.14;;;8.17;100.00
51067;BME280;37112;45.892;-123.962;2023-02-20T11:33:45;102648.46;;;8.17;100.00
51067;BME280;37112;45.892;-123.962;2023-02-20T11:36:08;102645.60;;;8.18;100.00
51067;BME280;37112;45.892;-123.962;2023-02-20T11:38:23;102642.21;;;8.19;100.00
51067;BME280;37112;45.892;-123.962;2023-02-20T11:40:38;102637.10;;;8.19;100.00
51067;BME280;37112;45.892;-123.962;2023-02-20T11:42:52;102639.92;;;8.19;100.00
51067;BME280;37112;45.892;-123.962;2023-02-20T11:45:16;102646.08;;;8.20;100.00
51067;BME280;37112;45.892;-123.962;2023-02-20T11:47:34;102662.01;;;8.20;100.00
51067;BME280;37112;45.892;-123.962;2023-02-20T11:49:48;102667.48;;;8.20;100.00
51067;BME280;37112;45.892;-123.962;2023-02-20T11:52:14;102656.15;;;8.21;100.00
51067;BME280;37112;45.892;-123.962;2023-02-20T11:54:28;102651.70;;;8.21;100.00